Weather reports worldwide

Advertisment
Wick Airport, United Kingdom (2003075): temperature & dewpoint: 27.06.2020 18:00:00 - 03.07.2020 18:00:00 (BST)Wick Airport, United Kingdom (2003075): wind speed: 27.06.2020 18:00:00 - 03.07.2020 18:00:00 (BST)Wick Airport, United Kingdom (2003075): wind direction: 27.06.2020 18:00:00 - 03.07.2020 18:00:00 (BST)Wick Airport, United Kingdom (2003075): visibility: 27.06.2020 18:00:00 - 03.07.2020 18:00:00 (BST)
Date & Time tt [°C] td [°C] ff [km/h] ff [kn] dd vv [km]
03.07.2020 18:00:00 11,0 11,0 13 7 SE 8
03.07.2020 17:00:00 11,0 10,0 16 9 ESE 10
03.07.2020 16:00:00 11,0 10,0 18 10 ESE 2,6
03.07.2020 15:00:00 11,0 9,0 22 12 SE 10
03.07.2020 14:00:00 12,0 9,0 21 11 SE 10
03.07.2020 13:00:00 12,0 8,0 24 13 SE 10
03.07.2020 12:00:00 12,0 8,0 26 14 SE 10
03.07.2020 11:00:00 12,0 8,0 21 11 SE 10
03.07.2020 10:00:00 12,0 7,0 16 9 SSE 10
03.07.2020 09:00:00 11,0 7,0 13 7 SSE 10
03.07.2020 08:00:00 10,0 7,0 9 5 SSE 10
03.07.2020 07:00:00 10,0 7,0 5 3 SSE 5
03.07.2020 06:00:00 9,0 6,0 2 1 S 2,3
03.07.2020 05:00:00 8,0 5,0 4 2 W 2,3
03.07.2020 04:00:00 8,0 5,0 5 3 WNW 7
03.07.2020 03:00:00 9,0 5,0 4 2 WNW 5
03.07.2020 02:00:00 9,0 5,0 4 2 NNW 10
03.07.2020 01:00:00 10,0 5,0 2 1 WNW 9
03.07.2020 00:00:00 10,0 5,0 4 2 W 3,9
02.07.2020 23:00:00 10,0 6,0 8 4 W 6
02.07.2020 22:00:00 10,0 6,0 5 3 W 4,3
02.07.2020 21:00:00 11,0 5,0 9 5 WNW 10
02.07.2020 20:00:00 11,0 5,0 16 9 WNW 10
02.07.2020 19:00:00 11,0 5,0 16 9 NW 10
02.07.2020 18:00:00 13,0 5,0 18 10 WNW 10
02.07.2020 17:00:00 13,0 5,0 21 11 NW 10
02.07.2020 16:00:00 13,0 5,0 15 8 NW 10
02.07.2020 15:00:00 12,0 5,0 18 10 NNW 10
02.07.2020 14:00:00 12,0 5,0 15 8 NW 10
02.07.2020 13:00:00 11,0 4,0 21 11 NW 10
02.07.2020 12:00:00 11,0 5,0 16 9 NW 10
02.07.2020 11:00:00 11,0 5,0 21 11 NW 10
02.07.2020 10:00:00 9,0 7,0 18 10 WNW 10
02.07.2020 09:00:00 10,0 6,0 21 11 NW 10
02.07.2020 08:00:00 9,0 6,0 21 11 NW 10
02.07.2020 07:00:00 8,0 6,0 11 6 W 10
02.07.2020 06:00:00 7,0 6,0 8 4 W 10
02.07.2020 05:00:00 6,0 5,0 8 4 W 10
02.07.2020 04:00:00 6,0 5,0 8 4 W 10
02.07.2020 03:00:00 6,0 6,0 5 3 WSW 10
02.07.2020 02:00:00 6,0 5,0 11 6 NNW 10
02.07.2020 01:00:00 7,0 5,0 9 5 NW 10
02.07.2020 00:00:00 6,0 5,0 9 5 NW 10
01.07.2020 23:00:00 6,0 5,0 11 6 NNW 10
01.07.2020 22:00:00 8,0 5,0 15 8 NNW 10
01.07.2020 21:00:00 9,0 6,0 13 7 NW 10
01.07.2020 20:00:00 11,0 5,0 16 9 NNW 10
01.07.2020 19:00:00 12,0 7,0 15 8 N 10
01.07.2020 18:00:00 11,0 7,0 13 7 NNE 10
01.07.2020 17:00:00 11,0 7,0 16 9 NNE 10
01.07.2020 16:00:00 11,0 7,0 8 4 NE 10
01.07.2020 15:00:00 11,0 6,0 13 7 NE 10
01.07.2020 14:00:00 11,0 7,0 16 9 NE 10
01.07.2020 13:00:00 12,0 6,0 21 11 NE 10
01.07.2020 12:00:00 11,0 7,0 18 10 NE 10
01.07.2020 11:00:00 11,0 7,0 9 5 NNE 10
01.07.2020 10:00:00 11,0 7,0 22 12 N 10
01.07.2020 09:00:00 11,0 7,0 21 11 NNE 10
01.07.2020 08:00:00 11,0 8,0 15 8 N 10
01.07.2020 07:00:00 11,0 8,0 18 10 NNE 10
01.07.2020 06:00:00 10,0 7,0 21 11 NNE 10
01.07.2020 05:00:00 10,0 8,0 24 13 NE 10
01.07.2020 04:00:00 10,0 8,0 26 14 NE 10
01.07.2020 03:00:00 10,0 9,0 22 12 NNE 6
01.07.2020 02:00:00 10,0 10,0 22 12 NNE 10
01.07.2020 01:00:00 - - - - - -
01.07.2020 00:00:00 11,0 10,0 21 11 N 4,1
30.06.2020 23:00:00 11,0 10,0 18 10 NNW 10
30.06.2020 22:00:00 11,0 10,0 24 13 NNW 10
30.06.2020 21:00:00 11,0 9,0 21 11 NW 10
30.06.2020 20:00:00 13,0 10,0 24 13 NW 10
30.06.2020 19:00:00 13,0 10,0 26 14 NNW 10
30.06.2020 18:00:00 14,0 11,0 24 13 NNW 10
30.06.2020 17:00:00 16,0 12,0 22 12 NNW 10
30.06.2020 16:00:00 15,0 11,0 18 10 N 10
30.06.2020 15:00:00 16,0 13,0 18 10 N 10
30.06.2020 14:00:00 15,0 12,0 15 8 N 10
30.06.2020 13:00:00 16,0 12,0 13 7 N 10
30.06.2020 12:00:00 15,0 12,0 15 8 NNE 10
30.06.2020 11:00:00 15,0 12,0 21 11 NNE 10
30.06.2020 10:00:00 13,0 12,0 16 9 NNE 10
30.06.2020 09:00:00 13,0 12,0 15 8 N 10
30.06.2020 08:00:00 12,0 12,0 18 10 NNW 8
30.06.2020 07:00:00 12,0 11,0 18 10 NNW 8
30.06.2020 06:00:00 12,0 11,0 18 10 NNW 10
30.06.2020 05:00:00 12,0 11,0 18 10 NNW 10
30.06.2020 04:00:00 12,0 11,0 16 9 NNW 9
30.06.2020 03:00:00 12,0 11,0 18 10 NNW 2,8
30.06.2020 02:00:00 12,0 11,0 18 10 NNW 10
30.06.2020 01:00:00 11,0 10,0 18 10 N 3,3
30.06.2020 00:00:00 12,0 12,0 16 9 NNW 10
29.06.2020 23:00:00 12,0 12,0 15 8 N 2,7
29.06.2020 22:00:00 12,0 12,0 16 9 N 1,7
29.06.2020 21:00:00 12,0 11,0 21 11 N 10
29.06.2020 20:00:00 12,0 11,0 21 11 NNE 10
29.06.2020 19:00:00 12,0 12,0 21 11 N 10
29.06.2020 18:00:00 13,0 12,0 21 11 N 0,5
29.06.2020 17:00:00 14,0 12,0 13 7 NNE 10
29.06.2020 16:00:00 13,0 12,0 8 4 ENE 10
29.06.2020 15:00:00 13,0 11,0 5 3 ESE 10
29.06.2020 14:00:00 13,0 11,0 5 3 - 10
29.06.2020 13:00:00 13,0 11,0 9 5 ESE 10
29.06.2020 12:00:00 13,0 11,0 11 6 E 10
29.06.2020 11:00:00 13,0 11,0 11 6 SE 10
29.06.2020 10:00:00 13,0 11,0 9 5 SE 10
29.06.2020 09:00:00 13,0 11,0 5 3 SSE 10
29.06.2020 08:00:00 12,0 11,0 5 3 - 10
29.06.2020 07:00:00 12,0 11,0 9 5 WSW 10
29.06.2020 06:00:00 12,0 11,0 11 6 SE 3,7
29.06.2020 05:00:00 12,0 11,0 11 6 SSE 10
29.06.2020 04:00:00 12,0 11,0 11 6 S 10
29.06.2020 03:00:00 12,0 11,0 13 7 SSE 10
29.06.2020 02:00:00 12,0 11,0 18 10 SSE 10
29.06.2020 01:00:00 12,0 11,0 15 8 SSE 10
29.06.2020 00:00:00 13,0 11,0 15 8 SSE 10
28.06.2020 23:00:00 13,0 11,0 11 6 SSE 10
28.06.2020 22:00:00 13,0 12,0 18 10 SE 10
28.06.2020 21:00:00 13,0 12,0 16 9 SSE 10
28.06.2020 20:00:00 13,0 12,0 13 7 SSE 10
28.06.2020 19:00:00 13,0 12,0 13 7 S 10
28.06.2020 18:00:00 13,0 12,0 15 8 SSE 10
28.06.2020 17:00:00 13,0 12,0 13 7 S 10
28.06.2020 16:00:00 13,0 12,0 15 8 SSE 8
28.06.2020 15:00:00 13,0 12,0 22 12 SE 10
28.06.2020 14:00:00 13,0 12,0 26 14 SE 5
28.06.2020 13:00:00 13,0 11,0 29 16 SE 10
28.06.2020 12:00:00 14,0 12,0 29 16 SE 10
28.06.2020 11:00:00 14,0 11,0 28 15 SSE 10
28.06.2020 10:00:00 14,0 12,0 24 13 SE 10
28.06.2020 09:00:00 14,0 12,0 22 12 SSE 10
28.06.2020 08:00:00 13,0 11,0 21 11 SSE 10
28.06.2020 07:00:00 12,0 12,0 18 10 SE 10
28.06.2020 06:00:00 12,0 12,0 18 10 SE 10
28.06.2020 05:00:00 12,0 12,0 18 10 SE 5
28.06.2020 04:00:00 12,0 12,0 22 12 SE 9
28.06.2020 03:00:00 12,0 12,0 22 12 SE 9
28.06.2020 02:00:00 13,0 12,0 22 12 SE 9
28.06.2020 01:00:00 13,0 12,0 26 14 SE 9
28.06.2020 00:00:00 13,0 12,0 29 16 SE 7
27.06.2020 23:00:00 13,0 12,0 29 16 SE 9
27.06.2020 22:00:00 13,0 12,0 34 18 SE 9
27.06.2020 21:00:00 13,0 13,0 31 17 SE 9
27.06.2020 20:00:00 14,0 13,0 29 16 SE 10
27.06.2020 19:00:00 14,0 13,0 24 13 SE 10
27.06.2020 18:00:00 14,0 13,0 24 13 SE 0,5

tt = temperature
td = dewpoint
ff = wind speed
dd = wind direction
vv = visibility

Next stations